createdAt,value
2022-11-09T00:01:12.332Z,14.00
2022-11-09T00:03:38.800Z,14.06
2022-11-09T00:06:05.287Z,14.18
2022-11-09T00:08:31.871Z,14.23
2022-11-09T00:11:06.056Z,14.23
2022-11-09T00:13:36.176Z,14.37
2022-11-09T00:16:02.602Z,14.38
2022-11-09T00:18:29.608Z,14.25
2022-11-09T00:20:56.308Z,14.15
2022-11-09T00:23:23.306Z,14.27
2022-11-09T00:25:49.936Z,14.33
2022-11-09T00:28:16.455Z,14.34
2022-11-09T00:30:42.959Z,14.40
2022-11-09T00:33:09.462Z,14.31
2022-11-09T00:35:38.380Z,14.28
2022-11-09T00:38:04.970Z,14.33
2022-11-09T00:40:31.452Z,14.26
2022-11-09T00:42:58.007Z,14.19
2022-11-09T00:45:24.556Z,14.15
2022-11-09T00:47:52.173Z,14.03
2022-11-09T00:50:18.791Z,14.02
2022-11-09T00:52:45.483Z,13.94
2022-11-09T00:55:12.028Z,13.92
2022-11-09T00:57:38.526Z,14.12
2022-11-09T01:00:05.916Z,13.99
2022-11-09T01:02:32.624Z,13.94
2022-11-09T01:04:59.159Z,13.86
2022-11-09T01:07:25.780Z,13.85
2022-11-09T01:09:52.256Z,13.63
2022-11-09T01:12:20.596Z,13.71
2022-11-09T01:14:47.212Z,13.78
2022-11-09T01:17:13.695Z,13.81
2022-11-09T01:19:40.526Z,13.82
2022-11-09T01:22:07.034Z,13.92
2022-11-09T01:24:33.534Z,13.97
2022-11-09T01:26:59.996Z,13.78
2022-11-09T01:29:26.460Z,13.79
2022-11-09T01:31:55.116Z,13.87
2022-11-09T01:34:21.852Z,13.81
2022-11-09T01:36:51.830Z,13.72
2022-11-09T01:39:19.011Z,13.55
2022-11-09T01:41:46.160Z,13.46
2022-11-09T01:44:14.040Z,13.52
2022-11-09T01:46:45.580Z,13.39
2022-11-09T01:49:42.220Z,13.44
2022-11-09T01:52:22.292Z,13.41
2022-11-09T01:54:53.636Z,13.52
2022-11-09T01:57:24.839Z,13.61
2022-11-09T01:59:56.187Z,13.48
2022-11-09T02:02:23.014Z,13.48
2022-11-09T02:04:54.521Z,13.51
2022-11-09T02:07:22.051Z,13.35
2022-11-09T02:10:04.637Z,13.33
2022-11-09T02:12:33.590Z,13.15
2022-11-09T02:15:02.339Z,12.85
2022-11-09T02:17:29.437Z,12.66
2022-11-09T02:19:59.244Z,12.42
2022-11-09T02:22:26.179Z,12.33
2022-11-09T02:24:56.284Z,12.45
2022-11-09T02:27:23.413Z,12.46
2022-11-09T02:29:50.223Z,12.51
2022-11-09T02:32:21.089Z,12.64
2022-11-09T02:34:47.563Z,12.63
2022-11-09T02:37:25.838Z,12.70
2022-11-09T02:39:52.335Z,12.84
2022-11-09T02:42:21.719Z,12.92
2022-11-09T02:44:52.647Z,13.02
2022-11-09T02:47:21.425Z,13.14
2022-11-09T02:49:48.150Z,13.10
2022-11-09T02:52:14.641Z,13.17
2022-11-09T02:54:44.694Z,13.04
2022-11-09T02:57:11.380Z,12.96
2022-11-09T02:59:37.858Z,13.06
2022-11-09T03:02:04.329Z,13.06
2022-11-09T03:04:30.789Z,12.80
2022-11-09T03:06:57.358Z,12.82
2022-11-09T03:09:24.050Z,12.82
2022-11-09T03:11:50.490Z,12.77
2022-11-09T03:14:17.211Z,12.90
2022-11-09T03:16:49.126Z,12.94
2022-11-09T03:19:16.877Z,12.96
2022-11-09T03:21:43.360Z,12.72
2022-11-09T03:24:09.907Z,12.64
2022-11-09T03:26:36.466Z,12.41
2022-11-09T03:29:02.981Z,12.62
2022-11-09T03:31:29.491Z,12.63
2022-11-09T03:33:55.986Z,12.69
2022-11-09T03:36:22.466Z,12.69
2022-11-09T03:38:48.969Z,12.63
2022-11-09T03:41:15.446Z,12.43
2022-11-09T03:43:41.929Z,12.27
2022-11-09T03:46:08.430Z,12.34
2022-11-09T03:48:34.887Z,12.14
2022-11-09T03:51:01.419Z,12.14
2022-11-09T03:53:27.999Z,11.96
2022-11-09T03:55:57.591Z,11.99
2022-11-09T03:58:24.108Z,12.22
2022-11-09T04:00:50.625Z,12.10
2022-11-09T04:03:17.364Z,12.15
2022-11-09T04:05:43.988Z,12.08
2022-11-09T04:08:10.433Z,12.14
2022-11-09T04:10:36.979Z,12.10
2022-11-09T04:13:19.495Z,11.84
2022-11-09T04:15:46.141Z,11.56
2022-11-09T04:18:14.390Z,11.61
2022-11-09T04:20:40.990Z,11.66
2022-11-09T04:23:09.784Z,11.61
2022-11-09T04:25:37.671Z,11.69
2022-11-09T04:28:05.829Z,11.42
2022-11-09T04:30:33.847Z,11.36
2022-11-09T04:33:00.943Z,11.40
2022-11-09T04:35:29.047Z,11.58
2022-11-09T04:38:00.407Z,11.54
2022-11-09T04:40:28.496Z,11.59
2022-11-09T04:42:54.977Z,11.19
2022-11-09T04:45:23.993Z,11.36
2022-11-09T04:47:50.512Z,11.58
2022-11-09T04:50:17.081Z,11.67
2022-11-09T04:52:43.675Z,11.83
2022-11-09T04:55:10.174Z,11.87
2022-11-09T04:57:36.638Z,11.99
2022-11-09T05:00:04.454Z,12.12
2022-11-09T05:02:31.051Z,12.18
2022-11-09T05:04:57.560Z,12.12
2022-11-09T05:07:24.056Z,12.15
2022-11-09T05:09:53.344Z,11.74
2022-11-09T05:12:19.896Z,11.72
2022-11-09T05:14:46.476Z,11.55
2022-11-09T05:17:12.962Z,11.53
2022-11-09T05:19:39.435Z,11.70
2022-11-09T05:22:05.919Z,11.85
2022-11-09T05:24:32.438Z,11.75
2022-11-09T05:26:59.011Z,11.74
2022-11-09T05:29:25.490Z,11.68
2022-11-09T05:31:52.560Z,11.72
2022-11-09T05:34:19.431Z,11.53
2022-11-09T05:36:46.005Z,11.50
2022-11-09T05:39:12.494Z,11.53
2022-11-09T05:41:38.966Z,11.62
2022-11-09T05:44:05.441Z,11.66
2022-11-09T05:46:32.047Z,11.56
2022-11-09T05:48:58.524Z,11.68
2022-11-09T05:51:25.337Z,11.63
2022-11-09T05:53:51.979Z,11.59
2022-11-09T05:56:18.489Z,11.55
2022-11-09T05:58:44.976Z,11.53
2022-11-09T06:01:14.151Z,11.77
2022-11-09T06:03:41.025Z,11.70
2022-11-09T06:06:09.192Z,11.64
2022-11-09T06:08:36.246Z,11.67
2022-11-09T06:11:11.255Z,11.81
2022-11-09T06:13:37.858Z,11.95
2022-11-09T06:16:05.700Z,12.02
2022-11-09T06:18:33.732Z,12.06
2022-11-09T06:21:02.453Z,11.94
2022-11-09T06:23:29.421Z,12.08
2022-11-09T06:26:05.092Z,11.83
2022-11-09T06:28:31.609Z,11.76
2022-11-09T06:31:15.897Z,11.63
2022-11-09T06:33:42.496Z,11.76
2022-11-09T06:36:10.381Z,11.72
2022-11-09T06:38:36.930Z,11.62
2022-11-09T06:41:03.491Z,11.77
2022-11-09T06:43:30.095Z,11.71
2022-11-09T06:45:56.732Z,11.78
2022-11-09T06:48:23.599Z,11.85
2022-11-09T06:50:50.098Z,11.88
2022-11-09T06:53:18.046Z,11.69
2022-11-09T06:55:50.299Z,11.84
2022-11-09T06:58:17.714Z,11.99
2022-11-09T07:00:44.726Z,12.09
2022-11-09T07:03:15.595Z,12.05
2022-11-09T07:05:42.697Z,12.18
2022-11-09T07:08:09.248Z,12.09
2022-11-09T07:10:36.235Z,11.78
2022-11-09T07:13:02.771Z,11.56
2022-11-09T07:15:29.304Z,11.32
2022-11-09T07:18:00.174Z,11.47
2022-11-09T07:20:27.466Z,11.64
2022-11-09T07:22:53.958Z,11.76
2022-11-09T07:25:20.869Z,11.90
2022-11-09T07:27:47.621Z,11.96
2022-11-09T07:30:22.955Z,12.04
2022-11-09T07:35:36.012Z,11.67
2022-11-09T07:38:02.670Z,11.59
2022-11-09T07:40:30.501Z,11.57
2022-11-09T07:43:00.990Z,11.76
2022-11-09T07:45:28.801Z,11.98
2022-11-09T07:47:59.722Z,12.11
2022-11-09T07:50:27.368Z,12.09
2022-11-09T07:52:57.880Z,12.27
2022-11-09T07:55:25.097Z,12.38
2022-11-09T07:57:56.366Z,12.41
2022-11-09T08:00:23.942Z,12.36
2022-11-09T08:02:50.603Z,12.30
2022-11-09T08:05:17.315Z,12.37
2022-11-09T08:07:43.814Z,12.29
2022-11-09T08:10:10.624Z,12.18
2022-11-09T08:12:37.520Z,12.04
2022-11-09T08:15:05.070Z,12.21
2022-11-09T08:17:32.221Z,12.29
2022-11-09T08:19:58.972Z,12.25
2022-11-09T08:22:25.506Z,12.29
2022-11-09T08:24:51.987Z,12.45
2022-11-09T08:27:18.814Z,12.15
2022-11-09T08:29:45.380Z,12.17
2022-11-09T08:32:12.330Z,12.17
2022-11-09T08:34:38.820Z,12.23
2022-11-09T08:37:05.553Z,12.04
2022-11-09T08:39:32.086Z,12.28
2022-11-09T08:41:58.561Z,12.24
2022-11-09T08:44:25.059Z,12.44
2022-11-09T08:46:52.561Z,12.58
2022-11-09T08:49:19.047Z,12.47
2022-11-09T08:51:45.532Z,12.26
2022-11-09T08:54:12.002Z,12.15
2022-11-09T08:56:38.529Z,11.98
2022-11-09T08:59:05.026Z,11.96
2022-11-09T09:01:31.568Z,11.97
2022-11-09T09:03:58.038Z,12.29
2022-11-09T09:06:29.752Z,12.55
2022-11-09T09:08:57.476Z,12.53
2022-11-09T09:11:24.060Z,12.73
2022-11-09T09:13:50.524Z,12.56
2022-11-09T09:16:17.047Z,12.61
2022-11-09T09:18:43.569Z,12.63
2022-11-09T09:21:10.608Z,12.85
2022-11-09T09:23:37.479Z,12.88
2022-11-09T09:26:04.114Z,12.91
2022-11-09T09:28:30.686Z,13.09
2022-11-09T09:30:58.629Z,13.25
2022-11-09T09:33:25.726Z,13.32
2022-11-09T09:35:52.420Z,13.27
2022-11-09T09:38:19.218Z,13.28
2022-11-09T09:40:57.633Z,13.50
2022-11-09T09:43:27.663Z,13.53
2022-11-09T09:45:54.377Z,13.52
2022-11-09T09:48:31.604Z,13.46
2022-11-09T09:51:11.095Z,13.58
2022-11-09T09:53:44.287Z,13.64
2022-11-09T09:56:29.004Z,13.69
2022-11-09T09:59:40.034Z,13.76
2022-11-09T10:02:25.308Z,13.70
2022-11-09T10:04:59.048Z,13.74
2022-11-09T10:08:00.085Z,13.86
2022-11-09T10:11:03.436Z,13.97
2022-11-09T10:13:55.955Z,13.66
2022-11-09T10:16:39.340Z,13.51
2022-11-09T10:19:34.028Z,13.82
2022-11-09T10:22:14.454Z,13.85
2022-11-09T10:25:16.796Z,13.92
2022-11-09T10:27:54.463Z,14.17
2022-11-09T10:30:26.997Z,14.40
2022-11-09T10:33:14.455Z,14.33
2022-11-09T10:35:43.654Z,14.38
2022-11-09T10:38:15.139Z,14.31
2022-11-09T10:40:48.633Z,14.45
2022-11-09T10:43:15.373Z,14.40
2022-11-09T10:45:44.123Z,14.28
2022-11-09T10:48:13.050Z,14.09
2022-11-09T10:50:50.366Z,14.22
2022-11-09T10:53:18.937Z,14.23
2022-11-09T10:55:57.391Z,14.28
2022-11-09T10:58:37.321Z,14.07
2022-11-09T11:01:09.721Z,13.85
2022-11-09T11:03:36.659Z,13.80
2022-11-09T11:06:12.423Z,13.81
2022-11-09T11:08:47.033Z,13.74
2022-11-09T11:11:33.287Z,13.86
2022-11-09T11:14:34.197Z,13.79
2022-11-09T11:17:01.113Z,13.73
2022-11-09T11:19:40.357Z,13.79
2022-11-09T11:22:14.071Z,13.72
2022-11-09T11:24:58.930Z,13.66
2022-11-09T11:27:37.293Z,13.73
2022-11-09T11:30:13.149Z,13.64
2022-11-09T11:32:41.329Z,13.41
2022-11-09T11:35:16.870Z,13.32
2022-11-09T11:37:47.052Z,13.23
2022-11-09T11:40:13.461Z,13.13
2022-11-09T11:43:06.126Z,12.91
2022-11-09T11:45:41.549Z,12.88
2022-11-09T11:48:27.248Z,12.90
2022-11-09T11:51:02.839Z,12.82
2022-11-09T11:53:39.372Z,12.78
2022-11-09T11:56:33.850Z,12.44
2022-11-09T11:59:32.158Z,12.17
2022-11-09T12:02:21.484Z,12.21
2022-11-09T12:04:58.599Z,12.57
2022-11-09T12:07:28.058Z,12.94
2022-11-09T12:10:11.761Z,13.15
2022-11-09T12:12:52.299Z,13.23
2022-11-09T12:15:56.468Z,13.19
2022-11-09T12:18:45.434Z,12.93
2022-11-09T12:21:32.400Z,12.87
2022-11-09T12:24:15.929Z,12.66
2022-11-09T12:27:33.240Z,12.90
2022-11-09T12:30:12.951Z,13.18
2022-11-09T12:32:55.732Z,13.36
2022-11-09T12:35:56.067Z,13.41
2022-11-09T12:38:39.793Z,13.33
2022-11-09T12:41:28.113Z,13.23
2022-11-09T12:44:14.475Z,12.90
2022-11-09T12:46:50.095Z,12.88
2022-11-09T12:49:42.921Z,12.84
2022-11-09T12:52:16.317Z,12.93
2022-11-09T12:54:47.647Z,12.84
2022-11-09T12:57:30.364Z,13.06
2022-11-09T13:00:00.952Z,13.16
2022-11-09T13:02:36.175Z,13.39
2022-11-09T13:05:08.532Z,13.44
2022-11-09T13:07:50.032Z,13.46
2022-11-09T13:10:29.462Z,13.39
2022-11-09T13:13:11.331Z,12.99
2022-11-09T13:15:39.691Z,13.25
2022-11-09T13:18:22.803Z,13.44
2022-11-09T13:20:55.872Z,13.45
2022-11-09T13:23:47.682Z,13.52
2022-11-09T13:26:32.437Z,13.65
2022-11-09T13:29:23.571Z,13.74
2022-11-09T13:32:04.570Z,13.75
2022-11-09T13:34:53.326Z,13.66
2022-11-09T13:37:38.673Z,13.69
2022-11-09T13:40:33.073Z,13.53
2022-11-09T13:43:09.588Z,13.24
2022-11-09T13:45:54.835Z,13.24
2022-11-09T13:48:32.943Z,13.45
2022-11-09T13:51:23.380Z,13.41
2022-11-09T13:54:02.816Z,13.33
2022-11-09T13:56:29.311Z,13.15
2022-11-09T13:59:07.964Z,12.97
2022-11-09T14:01:38.504Z,12.78
2022-11-09T14:04:05.275Z,12.85
2022-11-09T14:06:35.257Z,13.06
2022-11-09T14:09:02.935Z,13.17
2022-11-09T14:11:35.422Z,13.36
2022-11-09T14:14:33.635Z,13.47
2022-11-09T14:17:10.378Z,13.51
2022-11-09T14:19:58.167Z,13.49
2022-11-09T14:22:26.283Z,13.41
2022-11-09T14:24:52.929Z,13.49
2022-11-09T14:27:21.331Z,13.60
2022-11-09T14:29:55.848Z,13.66
2022-11-09T14:32:33.892Z,13.52
2022-11-09T14:35:32.744Z,13.49
2022-11-09T14:38:02.641Z,13.56
2022-11-09T14:40:32.657Z,13.62
2022-11-09T14:43:21.857Z,13.72
2022-11-09T14:45:53.355Z,13.81
2022-11-09T14:48:23.351Z,13.68
2022-11-09T14:50:52.541Z,13.41
2022-11-09T14:53:21.540Z,13.24
2022-11-09T14:55:53.387Z,12.92
2022-11-09T14:58:21.475Z,13.08
2022-11-09T15:01:09.457Z,13.09
2022-11-09T15:03:36.157Z,13.08
2022-11-09T15:06:05.344Z,13.15
2022-11-09T15:08:32.071Z,13.16
2022-11-09T15:10:58.622Z,13.30
2022-11-09T15:13:37.015Z,13.38
2022-11-09T15:16:05.240Z,13.25
2022-11-09T15:18:34.588Z,13.30
2022-11-09T15:21:18.928Z,13.12
2022-11-09T15:24:23.126Z,12.73
2022-11-09T15:26:50.611Z,12.61
2022-11-09T15:29:37.926Z,12.73
2022-11-09T15:32:10.525Z,12.89
2022-11-09T15:34:40.709Z,12.86
2022-11-09T15:37:19.274Z,13.00
2022-11-09T15:39:45.839Z,13.00
2022-11-09T15:42:13.531Z,12.98
2022-11-09T15:44:40.039Z,13.08
2022-11-09T15:47:20.640Z,13.16
2022-11-09T15:49:47.285Z,13.23
2022-11-09T15:52:13.758Z,13.13
2022-11-09T15:54:44.062Z,12.80
2022-11-09T15:57:18.268Z,12.49
2022-11-09T15:59:48.239Z,12.25
2022-11-09T16:02:19.589Z,12.20
2022-11-09T16:04:46.132Z,12.04
2022-11-09T16:07:16.019Z,11.91
2022-11-09T16:09:43.040Z,11.86
2022-11-09T16:12:09.909Z,11.82
2022-11-09T16:14:36.706Z,11.84
2022-11-09T16:17:04.374Z,11.88
2022-11-09T16:19:30.873Z,11.78
2022-11-09T16:21:57.430Z,11.87
2022-11-09T16:24:24.051Z,11.81
2022-11-09T16:26:50.554Z,11.92
2022-11-09T16:29:17.096Z,12.15
2022-11-09T16:31:52.178Z,12.37
2022-11-09T16:34:19.199Z,12.52
2022-11-09T16:36:50.875Z,12.54
2022-11-09T16:39:17.535Z,12.58
2022-11-09T16:41:50.225Z,12.65
2022-11-09T16:44:18.723Z,12.64
2022-11-09T16:46:47.214Z,12.59
2022-11-09T16:49:13.876Z,12.40
2022-11-09T16:51:40.722Z,12.24
2022-11-09T16:54:07.195Z,12.17
2022-11-09T16:56:36.424Z,12.24
2022-11-09T16:59:03.215Z,12.26
2022-11-09T17:01:29.779Z,12.20
2022-11-09T17:03:57.433Z,12.34
2022-11-09T17:06:24.263Z,12.35
2022-11-09T17:08:50.864Z,12.42
2022-11-09T17:11:17.360Z,12.58
2022-11-09T17:13:43.851Z,12.73
2022-11-09T17:16:12.330Z,12.88
2022-11-09T17:18:38.902Z,12.73
2022-11-09T17:21:12.839Z,12.84
2022-11-09T17:23:39.319Z,12.94
2022-11-09T17:26:07.701Z,12.97
2022-11-09T17:28:38.755Z,13.06
2022-11-09T17:31:08.973Z,13.04
2022-11-09T17:33:35.582Z,12.95
2022-11-09T17:36:04.945Z,13.09
2022-11-09T17:38:31.532Z,13.04
2022-11-09T17:41:05.185Z,13.11
2022-11-09T17:43:33.085Z,13.13
2022-11-09T17:46:10.412Z,13.09
2022-11-09T17:48:38.324Z,13.02
2022-11-09T17:51:06.224Z,12.99
2022-11-09T17:53:32.865Z,12.83
2022-11-09T17:55:59.767Z,12.89
2022-11-09T17:58:26.427Z,12.91
2022-11-09T18:00:53.204Z,12.74
2022-11-09T18:03:22.582Z,12.50
2022-11-09T18:05:49.364Z,12.46
2022-11-09T18:08:18.659Z,12.33
2022-11-09T18:10:47.920Z,12.43
2022-11-09T18:13:14.375Z,12.39
2022-11-09T18:15:40.905Z,12.46
2022-11-09T18:18:12.336Z,12.35
2022-11-09T18:20:38.852Z,12.20
2022-11-09T18:23:05.382Z,12.16
2022-11-09T18:25:31.892Z,12.29
2022-11-09T18:27:58.383Z,12.34
2022-11-09T18:30:24.932Z,12.35
2022-11-09T18:32:52.193Z,12.33
2022-11-09T18:35:18.707Z,12.27
2022-11-09T18:37:45.367Z,12.16
2022-11-09T18:40:12.058Z,11.94
2022-11-09T18:42:38.622Z,11.85
2022-11-09T18:45:05.972Z,11.77
2022-11-09T18:47:32.523Z,11.70
2022-11-09T18:49:59.040Z,11.82
2022-11-09T18:52:25.701Z,11.98
2022-11-09T18:54:52.255Z,12.04
2022-11-09T18:57:20.119Z,11.93
2022-11-09T18:59:46.766Z,11.96
2022-11-09T19:02:17.638Z,12.09
2022-11-09T19:04:46.590Z,12.09
2022-11-09T19:07:13.152Z,11.98
2022-11-09T19:09:39.751Z,12.02
2022-11-09T19:12:07.437Z,12.16
2022-11-09T19:14:35.786Z,12.28
2022-11-09T19:17:02.291Z,12.38
2022-11-09T19:19:28.796Z,12.44
2022-11-09T19:21:59.126Z,12.53
2022-11-09T19:24:26.665Z,12.58
2022-11-09T19:26:53.157Z,12.59
2022-11-09T19:29:19.644Z,12.63
2022-11-09T19:31:46.538Z,12.68
2022-11-09T19:34:15.605Z,12.76
2022-11-09T19:36:42.616Z,12.69
2022-11-09T19:39:09.882Z,12.66
2022-11-09T19:41:36.514Z,12.68
2022-11-09T19:44:03.420Z,12.69
2022-11-09T19:46:30.647Z,12.68
2022-11-09T19:48:57.382Z,12.69
2022-11-09T19:51:24.348Z,12.71
2022-11-09T19:53:52.189Z,12.66
2022-11-09T19:56:19.454Z,12.62
2022-11-09T19:58:52.635Z,12.65
2022-11-09T20:01:19.471Z,12.71
2022-11-09T20:03:54.629Z,12.68
2022-11-09T20:06:22.135Z,12.61
2022-11-09T20:08:48.797Z,12.51
2022-11-09T20:11:27.650Z,12.53
2022-11-09T20:14:04.710Z,12.62
2022-11-09T20:16:32.482Z,12.44
2022-11-09T20:19:02.538Z,12.41
2022-11-09T20:21:29.031Z,12.22
2022-11-09T20:23:55.559Z,12.32
2022-11-09T20:26:22.062Z,12.43
2022-11-09T20:28:48.840Z,12.45
2022-11-09T20:31:17.729Z,12.52
2022-11-09T20:33:44.270Z,12.49
2022-11-09T20:36:10.790Z,12.52
2022-11-09T20:38:37.554Z,12.45
2022-11-09T20:41:08.711Z,12.50
2022-11-09T20:43:36.398Z,12.64
2022-11-09T20:46:07.763Z,12.68
2022-11-09T20:51:22.993Z,12.42
2022-11-09T20:53:52.108Z,12.33
2022-11-09T20:56:19.833Z,12.12
2022-11-09T20:58:46.586Z,12.12
2022-11-09T21:01:19.555Z,12.30
2022-11-09T21:03:47.416Z,12.33
2022-11-09T21:06:14.670Z,12.50
2022-11-09T21:08:46.765Z,12.39
2022-11-09T21:11:13.600Z,12.36
2022-11-09T21:13:40.676Z,12.52
2022-11-09T21:16:13.318Z,12.55
2022-11-09T21:18:40.274Z,12.45
2022-11-09T21:21:09.460Z,12.56
2022-11-09T21:23:39.336Z,12.69
2022-11-09T21:26:08.158Z,12.70
2022-11-09T21:28:34.729Z,12.67
2022-11-09T21:31:02.060Z,12.73
2022-11-09T21:33:28.875Z,12.54
2022-11-09T21:35:55.630Z,12.66
2022-11-09T21:38:22.430Z,12.68
2022-11-09T21:40:49.888Z,12.70
2022-11-09T21:43:16.761Z,12.70
2022-11-09T21:45:43.255Z,12.81
2022-11-09T21:48:09.788Z,12.81
2022-11-09T21:50:36.257Z,12.84
2022-11-09T21:53:02.910Z,12.84
2022-11-09T21:55:30.321Z,12.76
2022-11-09T21:57:56.784Z,12.75
2022-11-09T22:00:23.317Z,12.76
2022-11-09T22:02:50.692Z,12.63
2022-11-09T22:05:22.659Z,12.77
2022-11-09T22:07:49.527Z,12.63
2022-11-09T22:10:16.214Z,12.29
2022-11-09T22:12:42.713Z,12.27
2022-11-09T22:15:10.322Z,12.54
2022-11-09T22:17:36.900Z,12.67
2022-11-09T22:20:03.626Z,12.75
2022-11-09T22:22:32.795Z,12.73
2022-11-09T22:24:59.472Z,12.67
2022-11-09T22:27:26.119Z,12.71
2022-11-09T22:29:52.636Z,12.73
2022-11-09T22:32:19.133Z,12.69
2022-11-09T22:34:45.698Z,12.64
2022-11-09T22:37:12.359Z,12.65
2022-11-09T22:39:41.795Z,12.75
2022-11-09T22:42:12.520Z,12.75
2022-11-09T22:44:39.005Z,12.80
2022-11-09T22:47:05.615Z,12.84
2022-11-09T22:49:34.762Z,12.80
2022-11-09T22:52:01.244Z,12.77
2022-11-09T22:54:27.894Z,12.66
2022-11-09T22:56:54.424Z,12.57
2022-11-09T22:59:20.921Z,12.63
2022-11-09T23:01:47.391Z,12.61
2022-11-09T23:04:13.919Z,12.71
2022-11-09T23:06:40.471Z,12.70
2022-11-09T23:09:07.055Z,12.76
2022-11-09T23:11:33.696Z,12.75
2022-11-09T23:14:00.223Z,12.65
2022-11-09T23:16:26.742Z,12.42
2022-11-09T23:18:53.281Z,12.63
2022-11-09T23:21:40.065Z,12.64
2022-11-09T23:24:07.936Z,12.73
2022-11-09T23:26:34.630Z,12.72
2022-11-09T23:29:01.252Z,12.74
2022-11-09T23:31:28.030Z,12.66
2022-11-09T23:33:57.619Z,12.68
2022-11-09T23:36:26.352Z,12.54
2022-11-09T23:38:53.235Z,12.66
2022-11-09T23:41:19.910Z,12.60
2022-11-09T23:43:49.514Z,12.52
2022-11-09T23:46:16.826Z,12.49
2022-11-09T23:48:43.361Z,12.51
2022-11-09T23:51:10.208Z,12.49
2022-11-09T23:53:36.687Z,12.57
2022-11-09T23:56:06.396Z,12.67
2022-11-09T23:58:33.513Z,12.64
